createdAt,value
2019-06-08T00:00:49.611Z,984.851
2019-06-08T00:02:49.650Z,984.862
2019-06-08T00:04:50.319Z,984.852
2019-06-08T00:06:50.704Z,984.817
2019-06-08T00:08:49.967Z,984.709
2019-06-08T00:10:50.022Z,984.665
2019-06-08T00:12:50.080Z,984.578
2019-06-08T00:14:50.196Z,984.568
2019-06-08T00:16:50.490Z,984.597
2019-06-08T00:18:50.573Z,984.680
2019-06-08T00:20:49.709Z,984.720
2019-06-08T00:22:49.782Z,984.798
2019-06-08T00:24:49.953Z,984.829
2019-06-08T00:26:50.237Z,984.838
2019-06-08T00:28:50.287Z,984.835
2019-06-08T00:30:50.474Z,984.823
2019-06-08T00:32:50.679Z,984.871
2019-06-08T00:34:50.531Z,984.890
2019-06-08T00:36:49.800Z,984.912
2019-06-08T00:38:49.892Z,984.943
2019-06-08T00:40:50.042Z,985.043
2019-06-08T00:42:50.166Z,985.054
2019-06-08T00:44:50.279Z,985.062
2019-06-08T00:46:49.662Z,985.032
2019-06-08T00:48:49.835Z,985.016
2019-06-08T00:50:50.121Z,985.000
2019-06-08T00:52:50.162Z,984.966
2019-06-08T00:54:50.339Z,984.956
2019-06-08T00:56:50.708Z,984.917
2019-06-08T00:58:50.112Z,984.898
2019-06-08T01:00:50.322Z,984.843
2019-06-08T01:02:50.389Z,984.840
2019-06-08T01:04:50.076Z,984.838
2019-06-08T01:06:50.446Z,984.865
2019-06-08T01:08:50.555Z,984.870
2019-06-08T01:10:50.576Z,984.848
2019-06-08T01:12:49.756Z,984.816
2019-06-08T01:14:49.968Z,984.792
2019-06-08T01:16:50.253Z,984.779
2019-06-08T01:18:50.403Z,984.796
2019-06-08T01:20:49.686Z,984.865
2019-06-08T01:22:49.957Z,984.943
2019-06-08T01:24:50.264Z,984.968
2019-06-08T01:26:50.580Z,985.032
2019-06-08T01:28:49.698Z,985.036
2019-06-08T01:30:49.867Z,985.062
2019-06-08T01:32:49.981Z,985.077
2019-06-08T01:34:50.504Z,985.108
2019-06-08T01:36:49.800Z,985.073
2019-06-08T01:38:49.895Z,985.032
2019-06-08T01:40:49.984Z,985.022
2019-06-08T01:42:50.166Z,985.030
2019-06-08T01:44:50.263Z,985.031
2019-06-08T01:46:50.481Z,985.027
2019-06-08T01:48:50.546Z,985.058
2019-06-08T01:50:50.608Z,985.097
2019-06-08T01:52:49.795Z,985.182
2019-06-08T01:54:49.813Z,985.253
2019-06-08T01:56:50.090Z,985.228
2019-06-08T01:58:50.171Z,985.226
2019-06-08T02:00:50.333Z,985.243
2019-06-08T02:02:50.467Z,985.279
2019-06-08T02:04:50.054Z,985.307
2019-06-08T02:06:50.406Z,985.326
2019-06-08T02:08:49.722Z,985.347
2019-06-08T02:10:49.726Z,985.344
2019-06-08T02:12:49.824Z,985.316
2019-06-08T02:14:49.944Z,985.299
2019-06-08T02:16:50.113Z,985.341
2019-06-08T02:18:51.534Z,985.439
2019-06-08T02:20:49.617Z,985.413
2019-06-08T02:22:49.716Z,985.389
2019-06-08T02:24:49.736Z,985.388
2019-06-08T02:26:50.122Z,985.428
2019-06-08T02:28:50.322Z,985.428
2019-06-08T02:30:50.499Z,985.543
2019-06-08T02:32:50.599Z,985.552
2019-06-08T02:34:50.331Z,985.592
2019-06-08T02:36:49.648Z,985.583
2019-06-08T02:38:49.809Z,985.539
2019-06-08T02:40:49.847Z,985.560
2019-06-08T02:42:50.116Z,985.558
2019-06-08T02:44:50.226Z,985.567
2019-06-08T02:46:50.444Z,985.596
2019-06-08T02:49:04.810Z,985.660
2019-06-08T02:50:49.676Z,985.675
2019-06-08T02:52:49.774Z,985.702
2019-06-08T02:54:49.952Z,985.747
2019-06-08T02:56:50.211Z,985.762
2019-06-08T02:58:50.254Z,985.711
2019-06-08T03:00:50.284Z,985.705
2019-06-08T03:02:50.410Z,985.706
2019-06-08T03:04:49.956Z,985.721
2019-06-08T03:06:50.284Z,985.760
2019-06-08T03:08:50.365Z,985.770
2019-06-08T03:10:50.491Z,985.772
2019-06-08T03:12:49.637Z,985.798
2019-06-08T03:14:49.800Z,985.806
2019-06-08T03:16:50.074Z,985.781
2019-06-08T03:18:50.272Z,985.783
2019-06-08T03:20:50.387Z,985.808
2019-06-08T03:22:50.518Z,985.860
2019-06-08T03:24:49.665Z,985.892
2019-06-08T03:26:50.041Z,986.038
2019-06-08T03:28:50.121Z,986.083
2019-06-08T03:30:55.478Z,986.123
2019-06-08T03:32:57.504Z,986.142
2019-06-08T03:34:57.539Z,986.183
2019-06-08T03:36:57.933Z,986.247
2019-06-08T03:38:50.165Z,986.248
2019-06-08T03:40:50.221Z,986.193
2019-06-08T03:42:55.432Z,986.201
2019-06-08T03:44:50.530Z,986.242
2019-06-08T03:46:49.786Z,986.367
2019-06-08T03:48:49.946Z,986.435
2019-06-08T03:50:50.052Z,986.593
2019-06-08T03:52:50.208Z,986.601
2019-06-08T03:54:50.322Z,986.602
2019-06-08T03:56:49.754Z,986.602
2019-06-08T03:58:50.017Z,986.652
2019-06-08T04:00:50.299Z,986.622
2019-06-08T04:02:50.546Z,986.578
2019-06-08T04:04:50.407Z,986.536
2019-06-08T04:06:50.319Z,986.592
2019-06-08T04:08:50.420Z,986.597
2019-06-08T04:10:50.590Z,986.628
2019-06-08T04:12:50.405Z,986.655
2019-06-08T04:14:50.754Z,986.650
2019-06-08T04:16:50.578Z,986.634
2019-06-08T04:18:50.562Z,986.627
2019-06-08T04:20:51.903Z,986.576
2019-06-08T04:22:50.861Z,986.581
2019-06-08T04:24:50.913Z,986.611
2019-06-08T04:26:50.994Z,986.687
2019-06-08T04:28:50.205Z,986.769
2019-06-08T04:30:50.409Z,986.807
2019-06-08T04:32:50.506Z,986.824
2019-06-08T04:34:50.304Z,986.904
2019-06-08T04:36:50.734Z,986.904
2019-06-08T04:38:50.498Z,986.979
2019-06-08T04:40:50.546Z,987.051
2019-06-08T04:42:51.374Z,987.067
2019-06-08T04:44:50.501Z,987.112
2019-06-08T04:46:49.909Z,987.171
2019-06-08T04:48:50.511Z,987.243
2019-06-08T04:50:50.097Z,987.339
2019-06-08T04:52:50.343Z,987.380
2019-06-08T04:54:50.426Z,987.433
2019-06-08T04:56:49.917Z,987.433
2019-06-08T04:58:51.723Z,987.556
2019-06-08T05:00:51.290Z,987.596
2019-06-08T05:02:51.603Z,987.665
2019-06-08T05:04:50.301Z,987.676
2019-06-08T05:06:49.939Z,987.661
2019-06-08T05:08:50.153Z,987.639
2019-06-08T05:10:50.273Z,987.632
2019-06-08T05:12:50.626Z,987.648
2019-06-08T05:14:49.629Z,987.641
2019-06-08T05:16:50.099Z,987.641
2019-06-08T05:18:50.187Z,987.588
2019-06-08T05:20:51.821Z,987.618
2019-06-08T05:22:50.109Z,987.618
2019-06-08T05:24:50.455Z,987.686
2019-06-08T05:26:49.939Z,987.703
2019-06-08T05:28:50.137Z,987.712
2019-06-08T05:30:50.219Z,987.712
2019-06-08T05:32:50.283Z,987.757
2019-06-08T05:34:50.051Z,987.732
2019-06-08T05:36:50.382Z,987.695
2019-06-08T05:38:50.553Z,987.682
2019-06-08T05:40:50.154Z,987.733
2019-06-08T05:42:50.316Z,987.840
2019-06-08T05:44:50.612Z,987.848
2019-06-08T05:46:50.289Z,987.928
2019-06-08T05:48:50.675Z,988.047
2019-06-08T05:51:04.594Z,988.081
2019-06-08T05:52:50.597Z,988.131
2019-06-08T05:54:50.425Z,988.148
2019-06-08T05:56:50.689Z,988.192
2019-06-08T05:58:50.676Z,988.192
2019-06-08T06:00:50.890Z,988.150
2019-06-08T06:02:51.189Z,988.169
2019-06-08T06:04:54.135Z,988.243
2019-06-08T06:06:51.207Z,988.316
2019-06-08T06:08:51.207Z,988.319
2019-06-08T06:10:51.607Z,988.308
2019-06-08T06:12:51.279Z,988.294
2019-06-08T06:14:51.510Z,988.270
2019-06-08T06:16:49.684Z,988.267
2019-06-08T06:18:52.541Z,988.273
2019-06-08T06:20:49.647Z,988.378
2019-06-08T06:22:49.831Z,988.401
2019-06-08T06:24:50.318Z,988.369
2019-06-08T06:26:49.975Z,988.343
2019-06-08T06:28:50.138Z,988.305
2019-06-08T06:30:50.447Z,988.297
2019-06-08T06:32:50.458Z,988.340
2019-06-08T06:34:50.332Z,988.340
2019-06-08T06:36:51.784Z,988.455
2019-06-08T06:38:50.360Z,988.512
2019-06-08T06:40:50.372Z,988.534
2019-06-08T06:42:50.581Z,988.602
2019-06-08T06:44:52.308Z,988.631
2019-06-08T06:46:50.349Z,988.669
2019-06-08T06:48:50.648Z,988.698
2019-06-08T06:50:50.625Z,988.761
2019-06-08T06:52:50.943Z,988.772
2019-06-08T06:54:51.472Z,988.774
2019-06-08T06:56:52.022Z,988.826
2019-06-08T06:58:51.221Z,988.821
2019-06-08T07:00:49.731Z,988.770
2019-06-08T07:02:50.230Z,988.759
2019-06-08T07:04:50.240Z,988.772
2019-06-08T07:06:50.609Z,988.733
2019-06-08T07:08:50.570Z,988.736
2019-06-08T07:10:51.000Z,988.780
2019-06-08T07:12:51.026Z,988.814
2019-06-08T07:14:51.575Z,988.822
2019-06-08T07:16:50.351Z,988.821
2019-06-08T07:18:50.491Z,988.839
2019-06-08T07:20:50.584Z,988.851
2019-06-08T07:22:50.435Z,988.909
2019-06-08T07:24:50.500Z,988.909
2019-06-08T07:26:50.639Z,988.981
2019-06-08T07:28:53.986Z,988.983
2019-06-08T07:30:50.842Z,988.974
2019-06-08T07:32:51.183Z,988.953
2019-06-08T07:34:52.879Z,988.939
2019-06-08T07:36:51.460Z,988.959
2019-06-08T07:38:51.515Z,988.992
2019-06-08T07:40:50.163Z,989.058
2019-06-08T07:42:54.905Z,989.051
2019-06-08T07:44:50.993Z,989.036
2019-06-08T07:46:51.576Z,989.008
2019-06-08T07:48:50.656Z,989.024
2019-06-08T07:50:50.502Z,989.096
2019-06-08T07:52:52.969Z,989.107
2019-06-08T07:54:53.112Z,989.091
2019-06-08T07:56:52.970Z,989.111
2019-06-08T07:58:53.337Z,989.116
2019-06-08T08:00:57.870Z,989.159
2019-06-08T08:02:50.436Z,989.147
2019-06-08T08:04:50.695Z,989.125
2019-06-08T08:06:50.567Z,989.132
2019-06-08T08:08:50.845Z,989.165
2019-06-08T08:10:50.565Z,989.224
2019-06-08T08:12:51.061Z,989.231
2019-06-08T08:14:51.528Z,989.253
2019-06-08T08:16:51.196Z,989.255
2019-06-08T08:18:51.318Z,989.230
2019-06-08T08:20:51.354Z,989.284
2019-06-08T08:23:05.864Z,989.322
2019-06-08T08:25:01.145Z,989.276
2019-06-08T08:26:56.172Z,989.267
2019-06-08T08:28:56.163Z,989.319
2019-06-08T08:30:53.886Z,989.346
2019-06-08T08:32:56.019Z,989.301
2019-06-08T08:34:52.309Z,989.298
2019-06-08T08:36:53.675Z,989.304
2019-06-08T08:38:51.995Z,989.338
2019-06-08T08:40:54.315Z,989.355
2019-06-08T08:42:53.673Z,989.354
2019-06-08T08:44:52.651Z,989.345
2019-06-08T08:46:54.612Z,989.396
2019-06-08T08:48:52.553Z,989.462
2019-06-08T08:50:52.428Z,989.443
2019-06-08T08:52:52.406Z,989.423
2019-06-08T08:54:52.505Z,989.417
2019-06-08T08:56:57.840Z,989.430
2019-06-08T08:58:52.539Z,989.461
2019-06-08T09:00:55.051Z,989.475
2019-06-08T09:03:24.606Z,989.493
2019-06-08T09:04:54.933Z,989.548
2019-06-08T09:06:53.499Z,989.548
2019-06-08T09:08:55.458Z,989.582
2019-06-08T09:10:53.535Z,989.621
2019-06-08T09:12:55.701Z,989.668
2019-06-08T09:14:55.852Z,989.668
2019-06-08T09:16:51.099Z,989.653
2019-06-08T09:18:52.187Z,989.681
2019-06-08T09:20:54.120Z,989.648
2019-06-08T09:23:14.836Z,989.645
2019-06-08T09:24:55.924Z,989.657
2019-06-08T09:26:49.809Z,989.653
2019-06-08T09:28:49.994Z,989.646
2019-06-08T09:30:49.661Z,989.670
2019-06-08T09:32:49.897Z,989.679
2019-06-08T09:34:50.372Z,989.730
2019-06-08T09:36:50.238Z,989.742
2019-06-08T09:39:00.653Z,989.807
2019-06-08T09:40:50.227Z,989.904
2019-06-08T09:43:05.981Z,989.870
2019-06-08T09:44:49.991Z,989.870
2019-06-08T09:46:50.270Z,989.855
2019-06-08T09:48:50.409Z,989.868
2019-06-08T09:50:50.630Z,989.868
2019-06-08T09:53:22.548Z,989.875
2019-06-08T09:54:50.279Z,989.836
2019-06-08T09:56:50.617Z,989.830
2019-06-08T09:58:51.759Z,989.831
2019-06-08T10:00:49.967Z,989.790
2019-06-08T10:02:50.229Z,989.830
2019-06-08T10:04:49.944Z,989.876
2019-06-08T10:06:50.235Z,989.895
2019-06-08T10:08:50.418Z,989.878
2019-06-08T10:10:50.580Z,989.878
2019-06-08T10:12:49.751Z,989.878
2019-06-08T10:14:49.916Z,989.878
2019-06-08T10:16:50.232Z,989.908
2019-06-08T10:18:51.873Z,989.900
2019-06-08T10:20:50.023Z,989.914
2019-06-08T10:22:50.764Z,989.880
2019-06-08T10:24:49.815Z,989.896
2019-06-08T10:26:50.179Z,989.897
2019-06-08T10:28:51.508Z,989.881
2019-06-08T10:30:49.644Z,989.903
2019-06-08T10:32:51.219Z,989.894
2019-06-08T10:34:49.834Z,989.851
2019-06-08T10:36:50.172Z,989.846
2019-06-08T10:38:50.331Z,989.816
2019-06-08T10:40:50.498Z,989.783
2019-06-08T10:42:49.673Z,989.724
2019-06-08T10:44:49.819Z,989.783
2019-06-08T10:46:50.248Z,989.783
2019-06-08T10:48:50.553Z,989.738
2019-06-08T10:50:49.733Z,989.738
2019-06-08T10:52:49.900Z,989.761
2019-06-08T10:54:50.095Z,989.790
2019-06-08T10:56:50.453Z,989.802
2019-06-08T10:58:50.557Z,989.853
2019-06-08T11:00:49.654Z,989.866
2019-06-08T11:02:49.797Z,989.884
2019-06-08T11:04:50.325Z,989.884
2019-06-08T11:06:49.859Z,989.826
2019-06-08T11:08:50.043Z,989.849
2019-06-08T11:10:50.294Z,989.849
2019-06-08T11:12:50.550Z,989.862
2019-06-08T11:14:49.660Z,989.836
2019-06-08T11:16:50.102Z,989.822
2019-06-08T11:18:51.467Z,989.820
2019-06-08T11:20:50.575Z,989.768
2019-06-08T11:22:50.453Z,989.782
2019-06-08T11:24:50.583Z,989.814
2019-06-08T11:26:49.736Z,989.792
2019-06-08T11:28:51.570Z,989.797
2019-06-08T11:30:49.686Z,989.783
2019-06-08T11:32:49.867Z,989.751
2019-06-08T11:34:50.497Z,989.758
2019-06-08T11:36:52.064Z,989.759
2019-06-08T11:38:50.262Z,989.725
2019-06-08T11:40:50.412Z,989.696
2019-06-08T11:42:49.626Z,989.690
2019-06-08T11:44:51.701Z,989.714
2019-06-08T11:46:50.158Z,989.713
2019-06-08T11:48:50.291Z,989.713
2019-06-08T11:50:50.415Z,989.698
2019-06-08T11:52:50.557Z,989.693
2019-06-08T11:54:50.542Z,989.647
2019-06-08T11:56:49.763Z,989.624
2019-06-08T11:58:49.854Z,989.624
2019-06-08T12:00:49.920Z,989.619
2019-06-08T12:02:50.117Z,989.577
2019-06-08T12:04:49.750Z,989.600
2019-06-08T12:06:49.938Z,989.634
2019-06-08T12:08:49.966Z,989.603
2019-06-08T12:10:50.125Z,989.581
2019-06-08T12:12:50.323Z,989.573
2019-06-08T12:14:50.402Z,989.626
2019-06-08T12:16:49.673Z,989.666
2019-06-08T12:18:49.829Z,989.656
2019-06-08T12:20:49.847Z,989.653
2019-06-08T12:22:49.911Z,989.693
2019-06-08T12:24:50.129Z,989.649
2019-06-08T12:27:19.788Z,989.615
2019-06-08T12:28:49.757Z,989.597
2019-06-08T12:30:49.917Z,989.597
2019-06-08T12:32:50.126Z,989.636
2019-06-08T12:34:49.655Z,989.633
2019-06-08T12:36:49.875Z,989.606
2019-06-08T12:38:50.017Z,989.526
2019-06-08T12:40:50.120Z,989.528
2019-06-08T12:42:50.252Z,989.520
2019-06-08T12:44:50.458Z,989.492
2019-06-08T12:46:49.778Z,989.457
2019-06-08T12:48:49.823Z,989.439
2019-06-08T12:50:49.966Z,989.435
2019-06-08T12:52:50.115Z,989.431
2019-06-08T12:55:11.894Z,989.458
2019-06-08T12:56:50.319Z,989.509
2019-06-08T12:58:50.452Z,989.534
2019-06-08T13:00:50.623Z,989.554
2019-06-08T13:02:51.162Z,989.612
2019-06-08T13:04:49.731Z,989.612
2019-06-08T13:06:50.054Z,989.664
2019-06-08T13:08:50.099Z,989.624
2019-06-08T13:10:50.194Z,989.618
2019-06-08T13:12:50.341Z,989.643
2019-06-08T13:14:50.800Z,989.653
2019-06-08T13:16:53.369Z,989.660
2019-06-08T13:18:50.468Z,989.750
2019-06-08T13:20:52.056Z,989.680
2019-06-08T13:22:50.274Z,989.651
2019-06-08T13:24:50.360Z,989.622
2019-06-08T13:26:51.040Z,989.598
2019-06-08T13:28:50.162Z,989.611
2019-06-08T13:30:50.318Z,989.613
2019-06-08T13:32:50.589Z,989.628
2019-06-08T13:34:50.599Z,989.620
2019-06-08T13:36:49.896Z,989.571
2019-06-08T13:38:50.049Z,989.571
2019-06-08T13:40:50.227Z,989.602
2019-06-08T13:42:51.520Z,989.565
2019-06-08T13:44:50.533Z,989.597
2019-06-08T13:46:49.755Z,989.604
2019-06-08T13:48:49.902Z,989.616
2019-06-08T13:50:52.644Z,989.637
2019-06-08T13:52:49.825Z,989.677
2019-06-08T13:54:49.876Z,989.651
2019-06-08T13:56:50.889Z,989.647
2019-06-08T13:58:49.955Z,989.677
2019-06-08T14:00:50.096Z,989.652
2019-06-08T14:02:50.295Z,989.634
2019-06-08T14:04:49.895Z,989.632
2019-06-08T14:06:50.830Z,989.602
2019-06-08T14:08:50.120Z,989.595
2019-06-08T14:10:50.240Z,989.591
2019-06-08T14:12:50.427Z,989.623
2019-06-08T14:14:49.647Z,989.606
2019-06-08T14:16:50.829Z,989.586
2019-06-08T14:18:49.943Z,989.525
2019-06-08T14:20:49.991Z,989.485
2019-06-08T14:22:50.732Z,989.468
2019-06-08T14:24:49.870Z,989.457
2019-06-08T14:26:50.003Z,989.497
2019-06-08T14:28:50.705Z,989.525
2019-06-08T14:30:49.977Z,989.542
2019-06-08T14:32:50.098Z,989.530
2019-06-08T14:34:50.444Z,989.554
2019-06-08T14:36:49.689Z,989.513
2019-06-08T14:38:49.846Z,989.507
2019-06-08T14:40:49.920Z,989.507
2019-06-08T14:42:50.074Z,989.483
2019-06-08T14:44:50.248Z,989.473
2019-06-08T14:46:50.433Z,989.454
2019-06-08T14:48:50.499Z,989.418
2019-06-08T14:50:50.582Z,989.389
2019-06-08T14:52:50.723Z,989.423
2019-06-08T14:54:51.513Z,989.423
2019-06-08T14:56:49.787Z,989.423
2019-06-08T14:58:49.975Z,989.423
2019-06-08T15:00:50.144Z,989.449
2019-06-08T15:02:50.290Z,989.390
2019-06-08T15:04:49.894Z,989.394
2019-06-08T15:06:50.208Z,989.403
2019-06-08T15:08:50.641Z,989.416
2019-06-08T15:10:50.074Z,989.405
2019-06-08T15:12:53.779Z,989.369
2019-06-08T15:14:49.830Z,989.318
2019-06-08T15:16:50.250Z,989.287
2019-06-08T15:18:50.388Z,989.278
2019-06-08T15:20:50.417Z,989.299
2019-06-08T15:22:50.425Z,989.255
2019-06-08T15:24:50.565Z,989.239
2019-06-08T15:26:49.823Z,989.265
2019-06-08T15:28:49.959Z,989.268
2019-06-08T15:30:50.049Z,989.256
2019-06-08T15:32:50.173Z,989.248
2019-06-08T15:34:51.200Z,989.199
2019-06-08T15:36:50.543Z,989.193
2019-06-08T15:38:49.671Z,989.212
2019-06-08T15:40:49.802Z,989.191
2019-06-08T15:42:49.980Z,989.195
2019-06-08T15:44:50.072Z,989.166
2019-06-08T15:46:50.481Z,989.153
2019-06-08T15:48:49.698Z,989.157
2019-06-08T15:50:49.814Z,989.135
2019-06-08T15:52:49.855Z,989.121
2019-06-08T15:54:50.010Z,989.099
2019-06-08T15:56:52.538Z,989.099
2019-06-08T15:58:49.661Z,988.998
2019-06-08T16:00:49.770Z,988.987
2019-06-08T16:02:49.893Z,989.024
2019-06-08T16:04:50.330Z,989.045
2019-06-08T16:06:49.725Z,989.049
2019-06-08T16:08:49.862Z,989.025
2019-06-08T16:10:49.982Z,988.993
2019-06-08T16:12:50.222Z,988.980
2019-06-08T16:14:50.348Z,988.983
2019-06-08T16:16:49.691Z,988.983
2019-06-08T16:18:49.867Z,988.968
2019-06-08T16:20:50.004Z,988.959
2019-06-08T16:22:50.158Z,988.947
2019-06-08T16:24:50.362Z,988.958
2019-06-08T16:26:53.920Z,988.964
2019-06-08T16:28:50.049Z,988.956
2019-06-08T16:30:50.107Z,988.931
2019-06-08T16:32:50.256Z,988.916
2019-06-08T16:34:50.016Z,988.922
2019-06-08T16:36:50.524Z,988.915
2019-06-08T16:38:53.216Z,988.906
2019-06-08T16:40:50.355Z,988.903
2019-06-08T16:42:50.400Z,988.901
2019-06-08T16:44:50.531Z,988.924
2019-06-08T16:46:49.913Z,988.958
2019-06-08T16:48:49.964Z,988.952
2019-06-08T16:50:50.077Z,988.953
2019-06-08T16:52:50.224Z,988.904
2019-06-08T16:54:50.342Z,988.919
2019-06-08T16:56:49.738Z,988.939
2019-06-08T16:58:49.754Z,988.931
2019-06-08T17:00:49.905Z,988.927
2019-06-08T17:02:49.965Z,988.930
2019-06-08T17:04:50.474Z,988.967
2019-06-08T17:06:50.015Z,988.971
2019-06-08T17:08:50.431Z,988.971
2019-06-08T17:10:50.454Z,988.986
2019-06-08T17:12:50.591Z,988.987
2019-06-08T17:14:49.757Z,989.018
2019-06-08T17:16:50.139Z,989.030
2019-06-08T17:18:50.297Z,989.016
2019-06-08T17:20:50.482Z,989.015
2019-06-08T17:22:49.618Z,989.013
2019-06-08T17:24:49.812Z,988.990
2019-06-08T17:26:50.326Z,989.014
2019-06-08T17:28:50.532Z,989.033
2019-06-08T17:30:50.548Z,989.065
2019-06-08T17:32:49.660Z,989.078
2019-06-08T17:34:50.264Z,989.078
2019-06-08T17:36:50.576Z,989.119
2019-06-08T17:38:49.699Z,989.119
2019-06-08T17:40:49.908Z,989.100
2019-06-08T17:42:50.047Z,989.104
2019-06-08T17:44:50.463Z,989.090
2019-06-08T17:46:49.762Z,989.081
2019-06-08T17:48:49.950Z,989.070
2019-06-08T17:50:50.105Z,989.093
2019-06-08T17:52:50.215Z,989.103
2019-06-08T17:54:50.355Z,989.119
2019-06-08T17:56:49.683Z,989.111
2019-06-08T17:58:49.881Z,989.127
2019-06-08T18:00:50.039Z,989.122
2019-06-08T18:02:50.222Z,989.101
2019-06-08T18:04:49.685Z,989.106
2019-06-08T18:06:49.994Z,989.120
2019-06-08T18:08:50.139Z,989.138
2019-06-08T18:10:50.224Z,989.150
2019-06-08T18:12:50.284Z,989.178
2019-06-08T18:14:50.440Z,989.212
2019-06-08T18:16:49.734Z,989.237
2019-06-08T18:18:49.936Z,989.237
2019-06-08T18:20:52.458Z,989.283
2019-06-08T18:22:50.562Z,989.288
2019-06-08T18:24:50.593Z,989.303
2019-06-08T18:26:49.797Z,989.310
2019-06-08T18:28:49.914Z,989.335
2019-06-08T18:30:49.980Z,989.322
2019-06-08T18:32:50.112Z,989.322
2019-06-08T18:34:49.664Z,989.315
2019-06-08T18:36:50.075Z,989.313
2019-06-08T18:38:50.197Z,989.317
2019-06-08T18:40:50.386Z,989.314
2019-06-08T18:42:50.508Z,989.292
2019-06-08T18:44:49.757Z,989.292
2019-06-08T18:46:50.043Z,989.298
2019-06-08T18:48:50.211Z,989.304
2019-06-08T18:50:50.394Z,989.330
2019-06-08T18:52:50.520Z,989.330
2019-06-08T18:54:50.137Z,989.370
2019-06-08T18:56:50.342Z,989.402
2019-06-08T18:58:53.951Z,989.423
2019-06-08T19:00:51.838Z,989.445
2019-06-08T19:02:57.478Z,989.457
2019-06-08T19:04:50.321Z,989.457
2019-06-08T19:06:50.272Z,989.467
2019-06-08T19:08:51.251Z,989.482
2019-06-08T19:10:50.768Z,989.513
2019-06-08T19:12:50.933Z,989.523
2019-06-08T19:14:52.677Z,989.536
2019-06-08T19:16:57.517Z,989.545
2019-06-08T19:18:53.110Z,989.561
2019-06-08T19:20:53.911Z,989.583
2019-06-08T19:22:54.645Z,989.597
2019-06-08T19:24:51.073Z,989.619
2019-06-08T19:26:50.330Z,989.661
2019-06-08T19:28:54.530Z,989.671
2019-06-08T19:30:51.865Z,989.706
2019-06-08T19:32:52.731Z,989.731
2019-06-08T19:34:55.080Z,989.756
2019-06-08T19:36:57.271Z,989.805
2019-06-08T19:38:55.108Z,989.825
2019-06-08T19:40:49.880Z,989.899
2019-06-08T19:43:01.647Z,989.925
2019-06-08T19:45:06.181Z,989.938
2019-06-08T19:46:53.451Z,989.959
2019-06-08T19:48:58.926Z,989.959
2019-06-08T19:50:54.620Z,990.035
2019-06-08T19:52:53.760Z,990.035
2019-06-08T19:54:54.653Z,990.062
2019-06-08T19:56:57.238Z,990.062
2019-06-08T19:59:07.804Z,990.090
2019-06-08T20:00:58.183Z,990.097
2019-06-08T20:02:58.215Z,990.088
2019-06-08T20:04:50.008Z,990.048
2019-06-08T20:06:51.037Z,990.070
2019-06-08T20:08:51.773Z,990.062
2019-06-08T20:10:51.024Z,990.066
2019-06-08T20:12:51.132Z,990.093
2019-06-08T20:14:51.287Z,990.111
2019-06-08T20:16:51.068Z,990.123
2019-06-08T20:18:53.125Z,990.138
2019-06-08T20:20:54.682Z,990.145
2019-06-08T20:22:53.733Z,990.147
2019-06-08T20:24:56.107Z,990.140
2019-06-08T20:26:54.965Z,990.121
2019-06-08T20:29:11.887Z,990.121
2019-06-08T20:30:50.846Z,990.124
2019-06-08T20:32:54.570Z,990.139
2019-06-08T20:34:53.869Z,990.149
2019-06-08T20:36:50.951Z,990.191
2019-06-08T20:38:51.122Z,990.210
2019-06-08T20:40:50.389Z,990.218
2019-06-08T20:42:54.880Z,990.240
2019-06-08T20:44:53.276Z,990.279
2019-06-08T20:46:54.101Z,990.279
2019-06-08T20:48:53.238Z,990.355
2019-06-08T20:50:53.780Z,990.398
2019-06-08T20:52:53.992Z,990.425
2019-06-08T20:54:53.670Z,990.447
2019-06-08T20:56:53.544Z,990.447
2019-06-08T20:58:53.720Z,990.447
2019-06-08T21:00:54.222Z,990.448
2019-06-08T21:02:54.907Z,990.436
2019-06-08T21:04:56.303Z,990.440
2019-06-08T21:06:52.924Z,990.425
2019-06-08T21:08:54.466Z,990.426
2019-06-08T21:10:55.754Z,990.405
2019-06-08T21:12:55.762Z,990.403
2019-06-08T21:14:55.470Z,990.385
2019-06-08T21:16:53.406Z,990.377
2019-06-08T21:18:51.127Z,990.403
2019-06-08T21:20:51.379Z,990.403
2019-06-08T21:22:59.161Z,990.398
2019-06-08T21:24:59.695Z,990.370
2019-06-08T21:27:00.378Z,990.384
2019-06-08T21:28:59.649Z,990.406
2019-06-08T21:31:01.681Z,990.409
2019-06-08T21:32:59.205Z,990.404
2019-06-08T21:34:54.246Z,990.404
2019-06-08T21:36:55.638Z,990.414
2019-06-08T21:39:03.772Z,990.451
2019-06-08T21:41:00.365Z,990.451
2019-06-08T21:42:59.395Z,990.522
2019-06-08T21:44:55.982Z,990.555
2019-06-08T21:46:55.250Z,990.581
2019-06-08T21:48:54.601Z,990.601
2019-06-08T21:50:59.029Z,990.599
2019-06-08T21:52:54.399Z,990.617
2019-06-08T21:54:50.719Z,990.613
2019-06-08T21:56:54.747Z,990.633
2019-06-08T21:58:54.373Z,990.647
2019-06-08T22:00:52.556Z,990.647
2019-06-08T22:02:49.852Z,990.666
2019-06-08T22:05:02.650Z,990.689
2019-06-08T22:06:50.449Z,990.746
2019-06-08T22:08:50.487Z,990.763
2019-06-08T22:10:52.864Z,990.796
2019-06-08T22:12:55.023Z,990.811
2019-06-08T22:14:52.844Z,990.799
2019-06-08T22:16:54.230Z,990.800
2019-06-08T22:18:53.088Z,990.810
2019-06-08T22:20:53.292Z,990.809
2019-06-08T22:22:53.434Z,990.834
2019-06-08T22:24:53.590Z,990.834
2019-06-08T22:26:52.609Z,990.869
2019-06-08T22:28:49.877Z,990.875
2019-06-08T22:30:53.675Z,990.872
2019-06-08T22:32:49.675Z,990.874
2019-06-08T22:34:53.227Z,990.863
2019-06-08T22:36:54.121Z,990.892
2019-06-08T22:38:50.298Z,990.931
2019-06-08T22:40:50.496Z,990.921
2019-06-08T22:42:49.618Z,990.921
2019-06-08T22:44:49.723Z,990.909
2019-06-08T22:46:50.063Z,990.900
2019-06-08T22:48:50.243Z,990.894
2019-06-08T22:50:50.285Z,990.884
2019-06-08T22:52:50.426Z,990.885
2019-06-08T22:54:50.396Z,990.882
2019-06-08T22:56:49.625Z,990.901
2019-06-08T22:58:49.785Z,990.944
2019-06-08T23:00:57.062Z,990.948
2019-06-08T23:02:50.459Z,990.948
2019-06-08T23:04:50.096Z,990.940
2019-06-08T23:06:50.405Z,990.942
2019-06-08T23:08:50.512Z,990.969
2019-06-08T23:10:50.577Z,990.994
2019-06-08T23:12:49.740Z,991.011
2019-06-08T23:14:49.814Z,991.011
2019-06-08T23:16:50.194Z,991.027
2019-06-08T23:18:50.364Z,990.996
2019-06-08T23:20:50.401Z,991.008
2019-06-08T23:22:50.518Z,991.022
2019-06-08T23:24:49.668Z,991.023
2019-06-08T23:26:49.927Z,991.041
2019-06-08T23:28:50.095Z,991.057
2019-06-08T23:31:19.203Z,991.045
2019-06-08T23:32:50.508Z,991.053
2019-06-08T23:34:50.276Z,991.051
2019-06-08T23:37:04.444Z,991.056
2019-06-08T23:38:50.436Z,991.058
2019-06-08T23:40:50.573Z,991.071
2019-06-08T23:42:49.793Z,991.088
2019-06-08T23:44:49.964Z,991.119
2019-06-08T23:46:50.282Z,991.120
2019-06-08T23:48:50.485Z,991.139
2019-06-08T23:50:49.652Z,991.167
2019-06-08T23:52:49.728Z,991.165
2019-06-08T23:54:49.831Z,991.170
2019-06-08T23:56:49.942Z,991.145
2019-06-08T23:58:50.141Z,991.144
